createdAt,value
2022-12-08T00:00:42.699Z,98.35
2022-12-08T00:01:42.753Z,98.25
2022-12-08T00:02:42.818Z,98.35
2022-12-08T00:03:42.755Z,98.56
2022-12-08T00:04:42.669Z,98.56
2022-12-08T00:05:42.689Z,98.35
2022-12-08T00:06:42.639Z,98.35
2022-12-08T00:07:42.728Z,98.56
2022-12-08T00:08:42.611Z,98.46
2022-12-08T00:09:42.635Z,98.14
2022-12-08T00:10:50.222Z,98.04
2022-12-08T00:11:42.616Z,98.14
2022-12-08T00:12:42.596Z,98.14
2022-12-08T00:13:42.577Z,98.14
2022-12-08T00:14:42.578Z,98.46
2022-12-08T00:15:42.568Z,98.77
2022-12-08T00:16:42.553Z,98.56
2022-12-08T00:17:42.538Z,99.08
2022-12-08T00:18:42.508Z,99.50
2022-12-08T00:19:42.516Z,99.71
2022-12-08T00:20:42.508Z,99.60
2022-12-08T00:21:42.506Z,99.71
2022-12-08T00:22:42.474Z,99.81
2022-12-08T00:23:42.510Z,99.91
2022-12-08T00:24:42.449Z,99.60
2022-12-08T00:25:42.781Z,99.71
2022-12-08T00:26:42.445Z,99.71
2022-12-08T00:27:42.464Z,99.50
2022-12-08T00:28:42.435Z,99.91
2022-12-08T00:29:42.423Z,99.99
2022-12-08T00:30:42.390Z,99.99
2022-12-08T00:31:42.488Z,99.75
2022-12-08T00:32:42.373Z,99.75
2022-12-08T00:33:42.397Z,99.99
2022-12-08T00:34:42.355Z,99.99
2022-12-08T00:35:43.370Z,99.99
2022-12-08T00:36:42.331Z,99.99
2022-12-08T00:37:42.351Z,99.99
2022-12-08T00:38:42.305Z,99.99
2022-12-08T00:39:42.318Z,99.99
2022-12-08T00:40:42.284Z,99.99
2022-12-08T00:41:42.332Z,99.99
2022-12-08T00:42:42.262Z,99.96
2022-12-08T00:43:42.281Z,99.96
2022-12-08T00:44:42.241Z,99.33
2022-12-08T00:45:42.314Z,99.13
2022-12-08T00:46:42.225Z,98.92
2022-12-08T00:47:42.244Z,98.71
2022-12-08T00:48:42.268Z,98.60
2022-12-08T00:49:42.204Z,98.60
2022-12-08T00:50:42.176Z,98.60
2022-12-08T00:51:42.210Z,98.60
2022-12-08T00:52:42.167Z,98.60
2022-12-08T00:53:42.182Z,98.82
2022-12-08T00:54:42.171Z,98.71
2022-12-08T00:55:42.165Z,98.60
2022-12-08T00:56:42.119Z,98.71
2022-12-08T00:57:42.135Z,98.82
2022-12-08T00:58:42.103Z,98.50
2022-12-08T00:59:42.117Z,98.19
2022-12-08T01:00:42.177Z,98.08
2022-12-08T01:01:42.158Z,97.98
2022-12-08T01:02:42.058Z,98.19
2022-12-08T01:03:42.160Z,98.39
2022-12-08T01:04:42.056Z,97.98
2022-12-08T01:05:42.054Z,97.98
2022-12-08T01:06:42.012Z,98.08
2022-12-08T01:07:42.096Z,98.39
2022-12-08T01:08:42.005Z,98.08
2022-12-08T01:09:42.003Z,98.08
2022-12-08T01:10:41.987Z,98.19
2022-12-08T01:11:41.992Z,98.08
2022-12-08T01:12:41.992Z,98.19
2022-12-08T01:13:41.973Z,98.60
2022-12-08T01:14:41.954Z,99.13
2022-12-08T01:15:41.964Z,98.92
2022-12-08T01:16:42.032Z,98.39
2022-12-08T01:17:41.916Z,97.56
2022-12-08T01:18:41.906Z,97.46
2022-12-08T01:19:41.914Z,97.35
2022-12-08T01:20:41.877Z,97.46
2022-12-08T01:21:41.896Z,97.46
2022-12-08T01:22:41.882Z,97.67
2022-12-08T01:23:41.862Z,97.71
2022-12-08T01:24:41.843Z,97.92
2022-12-08T01:25:41.861Z,98.44
2022-12-08T01:26:41.844Z,98.86
2022-12-08T01:27:41.810Z,98.96
2022-12-08T01:28:41.785Z,99.17
2022-12-08T01:29:41.808Z,99.17
2022-12-08T01:30:41.849Z,99.48
2022-12-08T01:31:41.780Z,99.07
2022-12-08T01:32:41.749Z,99.17
2022-12-08T01:33:41.785Z,99.48
2022-12-08T01:34:41.732Z,99.59
2022-12-08T01:35:41.726Z,99.69
2022-12-08T01:36:41.707Z,99.59
2022-12-08T01:37:41.723Z,99.69
2022-12-08T01:38:41.691Z,99.90
2022-12-08T01:39:41.728Z,99.80
2022-12-08T01:40:41.662Z,99.99
2022-12-08T01:41:41.694Z,99.90
2022-12-08T01:42:41.639Z,99.69
2022-12-08T01:43:41.669Z,99.59
2022-12-08T01:44:41.679Z,99.53
2022-12-08T01:45:43.106Z,99.95
2022-12-08T01:46:41.764Z,99.84
2022-12-08T01:47:41.665Z,99.53
2022-12-08T01:48:41.604Z,99.32
2022-12-08T01:49:41.582Z,99.43
2022-12-08T01:50:41.610Z,99.53
2022-12-08T01:51:41.545Z,99.22
2022-12-08T01:52:41.547Z,99.53
2022-12-08T01:53:41.531Z,99.95
2022-12-08T01:54:41.555Z,99.84
2022-12-08T01:55:41.503Z,99.99
2022-12-08T01:56:41.524Z,99.99
2022-12-08T01:57:41.490Z,99.99
2022-12-08T01:58:41.502Z,99.99
2022-12-08T01:59:41.482Z,99.99
2022-12-08T02:00:41.490Z,99.99
2022-12-08T02:01:41.484Z,99.99
2022-12-08T02:02:41.533Z,99.99
2022-12-08T02:03:41.416Z,99.99
2022-12-08T02:04:41.432Z,99.99
2022-12-08T02:05:41.401Z,99.99
2022-12-08T02:07:52.307Z,99.99
2022-12-08T02:08:53.221Z,99.99
2022-12-08T02:09:53.241Z,99.99
2022-12-08T02:12:20.531Z,99.99
2022-12-08T02:12:25.550Z,99.99
2022-12-08T02:13:25.570Z,99.99
2022-12-08T02:14:25.526Z,99.99
2022-12-08T02:15:25.556Z,99.99
2022-12-08T02:16:25.577Z,99.99
2022-12-08T02:17:25.510Z,99.43
2022-12-08T02:18:25.482Z,99.68
2022-12-08T02:19:32.761Z,99.68
2022-12-08T02:20:25.473Z,99.89
2022-12-08T02:21:25.466Z,99.99
2022-12-08T02:22:24.449Z,99.99
2022-12-08T02:23:25.448Z,99.79
2022-12-08T02:24:25.429Z,99.68
2022-12-08T02:25:25.487Z,99.68
2022-12-08T02:26:25.404Z,99.68
2022-12-08T02:27:25.434Z,99.73
2022-12-08T02:28:25.383Z,99.93
2022-12-08T02:29:25.405Z,99.73
2022-12-08T02:30:25.365Z,99.93
2022-12-08T02:31:25.412Z,99.99
2022-12-08T02:32:25.347Z,99.99
2022-12-08T02:33:25.348Z,99.99
2022-12-08T02:34:25.322Z,99.99
2022-12-08T02:35:25.356Z,99.99
2022-12-08T02:36:25.305Z,99.99
2022-12-08T02:37:25.315Z,99.99
2022-12-08T02:38:25.280Z,99.99
2022-12-08T02:39:25.301Z,99.99
2022-12-08T02:40:25.273Z,99.99
2022-12-08T02:41:25.284Z,99.99
2022-12-08T02:42:25.248Z,99.99
2022-12-08T02:43:25.264Z,99.99
2022-12-08T02:44:25.226Z,99.99
2022-12-08T02:45:25.249Z,99.99
2022-12-08T02:46:25.237Z,99.99
2022-12-08T02:47:25.224Z,99.99
2022-12-08T02:48:25.185Z,99.99
2022-12-08T02:49:25.187Z,99.99
2022-12-08T02:50:25.168Z,99.99
2022-12-08T02:51:25.191Z,99.99
2022-12-08T02:52:25.139Z,99.99
2022-12-08T02:53:25.308Z,99.99
2022-12-08T02:54:25.122Z,99.99
2022-12-08T02:55:25.144Z,99.99
2022-12-08T02:56:25.128Z,99.99
2022-12-08T02:57:25.116Z,99.99
2022-12-08T02:58:25.081Z,99.99
2022-12-08T02:59:25.095Z,99.99
2022-12-08T03:00:25.062Z,99.99
2022-12-08T03:01:25.108Z,99.99
2022-12-08T03:02:25.122Z,99.99
2022-12-08T03:03:25.054Z,99.99
2022-12-08T03:04:25.019Z,99.99
2022-12-08T03:05:25.026Z,99.99
2022-12-08T03:06:24.993Z,99.93
2022-12-08T03:07:25.025Z,99.99
2022-12-08T03:08:25.023Z,99.93
2022-12-08T03:09:24.980Z,99.83
2022-12-08T03:10:24.958Z,99.83
2022-12-08T03:11:24.973Z,99.62
2022-12-08T03:12:24.942Z,99.73
2022-12-08T03:13:24.946Z,99.83
2022-12-08T03:14:24.919Z,99.62
2022-12-08T03:15:24.927Z,99.73
2022-12-08T03:16:24.985Z,99.83
2022-12-08T03:17:24.916Z,99.93
2022-12-08T03:18:24.895Z,99.99
2022-12-08T03:19:24.891Z,99.99
2022-12-08T03:20:24.860Z,99.99
2022-12-08T03:21:24.861Z,99.99
2022-12-08T03:22:24.838Z,99.89
2022-12-08T03:23:24.867Z,99.79
2022-12-08T03:24:24.829Z,99.89
2022-12-08T03:25:24.820Z,99.89
2022-12-08T03:26:24.799Z,99.99
2022-12-08T03:27:24.803Z,99.99
2022-12-08T03:28:24.777Z,99.99
2022-12-08T03:29:24.803Z,99.99
2022-12-08T03:30:24.756Z,99.99
2022-12-08T03:31:24.848Z,99.99
2022-12-08T03:32:24.750Z,99.99
2022-12-08T03:33:24.743Z,99.99
2022-12-08T03:34:24.720Z,99.99
2022-12-08T03:35:24.742Z,99.99
2022-12-08T03:36:24.699Z,99.79
2022-12-08T03:37:24.713Z,99.68
2022-12-08T03:38:24.675Z,99.68
2022-12-08T03:39:24.681Z,99.37
2022-12-08T03:40:24.660Z,99.47
2022-12-08T03:41:24.676Z,99.57
2022-12-08T03:42:24.636Z,99.57
2022-12-08T03:43:24.657Z,99.68
2022-12-08T03:44:24.615Z,99.68
2022-12-08T03:45:24.623Z,99.68
2022-12-08T03:46:55.522Z,99.57
2022-12-08T03:47:56.529Z,99.68
2022-12-08T03:48:56.502Z,99.99
2022-12-08T03:49:56.519Z,99.99
2022-12-08T03:50:56.487Z,99.99
2022-12-08T03:51:56.501Z,99.99
2022-12-08T03:52:56.473Z,99.99
2022-12-08T03:53:56.506Z,99.99
2022-12-08T03:54:56.445Z,99.79
2022-12-08T03:55:56.479Z,99.68
2022-12-08T03:56:56.435Z,99.79
2022-12-08T03:57:56.447Z,99.57
2022-12-08T03:58:56.404Z,99.63
2022-12-08T03:59:56.404Z,99.43
2022-12-08T04:00:56.381Z,99.22
2022-12-08T04:03:07.287Z,99.22
2022-12-08T04:04:08.197Z,99.01
2022-12-08T04:05:08.200Z,98.59
2022-12-08T04:06:08.177Z,98.49
2022-12-08T04:07:08.183Z,98.59
2022-12-08T04:08:08.251Z,99.01
2022-12-08T04:09:08.180Z,99.11
2022-12-08T04:10:08.267Z,99.11
2022-12-08T04:11:08.157Z,99.01
2022-12-08T04:12:08.115Z,98.90
2022-12-08T04:13:08.130Z,98.74
2022-12-08T04:14:08.116Z,98.74
2022-12-08T04:15:08.115Z,98.85
2022-12-08T04:16:08.117Z,99.05
2022-12-08T04:17:08.084Z,99.05
2022-12-08T04:18:08.073Z,98.95
2022-12-08T04:19:08.086Z,99.26
2022-12-08T04:20:08.080Z,99.16
2022-12-08T04:21:08.081Z,99.05
2022-12-08T04:22:08.039Z,99.26
2022-12-08T04:23:08.063Z,99.37
2022-12-08T04:24:07.996Z,98.85
2022-12-08T04:25:08.023Z,98.43
2022-12-08T04:26:07.988Z,98.22
2022-12-08T04:27:07.994Z,98.32
2022-12-08T04:28:07.952Z,98.63
2022-12-08T04:29:07.979Z,98.32
2022-12-08T04:30:08.064Z,98.22
2022-12-08T04:31:07.983Z,98.85
2022-12-08T04:32:07.923Z,99.37
2022-12-08T04:33:07.930Z,99.16
2022-12-08T04:34:07.900Z,98.95
2022-12-08T04:35:07.913Z,99.26
2022-12-08T04:36:07.892Z,99.57
2022-12-08T04:37:07.879Z,99.37
2022-12-08T04:38:07.869Z,99.37
2022-12-08T04:39:07.876Z,99.57
2022-12-08T04:40:07.873Z,99.63
2022-12-08T04:41:07.849Z,99.63
2022-12-08T04:42:07.865Z,99.53
2022-12-08T04:43:07.819Z,99.32
2022-12-08T04:44:07.797Z,99.11
2022-12-08T04:45:07.814Z,98.90
2022-12-08T04:46:07.788Z,98.90
2022-12-08T04:47:07.833Z,98.90
2022-12-08T04:48:07.794Z,99.22
2022-12-08T04:49:07.755Z,99.22
2022-12-08T04:50:07.734Z,99.11
2022-12-08T04:51:07.749Z,99.01
2022-12-08T04:52:07.727Z,98.90
2022-12-08T04:53:07.736Z,98.59
2022-12-08T04:54:07.703Z,98.69
2022-12-08T04:55:07.706Z,98.59
2022-12-08T04:56:07.671Z,98.28
2022-12-08T04:57:07.683Z,98.38
2022-12-08T04:58:07.663Z,98.69
2022-12-08T04:59:07.661Z,98.38
2022-12-08T05:00:07.850Z,98.28
2022-12-08T05:01:07.959Z,97.44
2022-12-08T05:02:07.709Z,97.65
2022-12-08T05:03:07.635Z,97.75
2022-12-08T05:04:07.718Z,98.07
2022-12-08T05:05:07.588Z,98.28
2022-12-08T05:06:07.595Z,98.49
2022-12-08T05:07:07.567Z,98.49
2022-12-08T05:08:07.664Z,98.59
2022-12-08T05:09:07.597Z,98.38
2022-12-08T05:10:07.638Z,98.07
2022-12-08T05:11:07.552Z,97.55
2022-12-08T05:12:07.503Z,97.75
2022-12-08T05:13:07.516Z,97.75
2022-12-08T05:14:07.488Z,97.75
2022-12-08T05:15:07.506Z,97.65
2022-12-08T05:16:07.521Z,97.86
2022-12-08T05:17:09.741Z,98.28
2022-12-08T05:18:07.463Z,98.59
2022-12-08T05:19:07.438Z,98.38
2022-12-08T05:20:07.565Z,98.59
2022-12-08T05:21:07.462Z,98.80
2022-12-08T05:22:07.394Z,98.80
2022-12-08T05:23:07.419Z,98.90
2022-12-08T05:24:07.376Z,98.80
2022-12-08T05:25:07.394Z,98.49
2022-12-08T05:26:07.359Z,98.07
2022-12-08T05:27:07.371Z,97.44
2022-12-08T05:28:39.665Z,97.55
2022-12-08T05:29:07.340Z,97.55
2022-12-08T05:30:07.517Z,97.55
2022-12-08T05:31:07.376Z,97.75
2022-12-08T05:32:07.351Z,97.97
2022-12-08T05:33:07.330Z,97.75
2022-12-08T05:34:07.274Z,97.65
2022-12-08T05:35:07.283Z,97.34
2022-12-08T05:36:07.276Z,97.44
2022-12-08T05:37:07.280Z,97.86
2022-12-08T05:38:07.242Z,97.44
2022-12-08T05:39:07.275Z,97.13
2022-12-08T05:40:07.662Z,97.34
2022-12-08T05:41:07.209Z,97.65
2022-12-08T05:42:07.215Z,97.13
2022-12-08T05:43:07.212Z,97.13
2022-12-08T05:44:07.166Z,97.34
2022-12-08T05:45:07.184Z,97.44
2022-12-08T05:46:07.246Z,97.75
2022-12-08T05:47:07.176Z,97.75
2022-12-08T05:48:07.133Z,97.44
2022-12-08T05:49:07.128Z,97.24
2022-12-08T05:50:07.520Z,97.65
2022-12-08T05:51:07.121Z,97.86
2022-12-08T05:52:07.091Z,97.13
2022-12-08T05:53:07.090Z,97.13
2022-12-08T05:54:07.068Z,96.92
2022-12-08T05:55:07.125Z,96.82
2022-12-08T05:56:07.045Z,96.82
2022-12-08T05:57:07.054Z,96.61
2022-12-08T05:58:08.138Z,96.71
2022-12-08T05:59:07.023Z,97.03
2022-12-08T06:00:07.451Z,97.44
2022-12-08T06:01:07.033Z,97.34
2022-12-08T06:02:07.095Z,97.65
2022-12-08T06:03:07.070Z,97.55
2022-12-08T06:04:06.969Z,97.44
2022-12-08T06:05:06.973Z,98.07
2022-12-08T06:06:06.940Z,97.86
2022-12-08T06:07:08.046Z,97.65
2022-12-08T06:08:06.991Z,97.75
2022-12-08T06:09:06.947Z,97.44
2022-12-08T06:10:07.185Z,97.34
2022-12-08T06:11:06.914Z,97.55
2022-12-08T06:12:06.901Z,97.75
2022-12-08T06:13:06.891Z,98.07
2022-12-08T06:14:06.878Z,97.97
2022-12-08T06:15:06.873Z,97.75
2022-12-08T06:16:06.897Z,98.07
2022-12-08T06:17:06.915Z,98.07
2022-12-08T06:18:06.821Z,98.18
2022-12-08T06:19:06.816Z,97.44
2022-12-08T06:20:07.225Z,97.34
2022-12-08T06:21:06.806Z,97.55
2022-12-08T06:22:06.788Z,97.44
2022-12-08T06:23:06.798Z,97.44
2022-12-08T06:24:06.758Z,97.65
2022-12-08T06:25:09.961Z,97.86
2022-12-08T06:26:06.739Z,97.03
2022-12-08T06:27:06.777Z,97.13
2022-12-08T06:28:06.712Z,97.34
2022-12-08T06:29:06.671Z,97.34
2022-12-08T06:30:07.010Z,97.03
2022-12-08T06:31:06.676Z,97.03
2022-12-08T06:32:06.714Z,96.82
2022-12-08T06:33:06.687Z,97.24
2022-12-08T06:34:06.671Z,96.82
2022-12-08T06:35:06.668Z,96.61
2022-12-08T06:36:06.626Z,96.40
2022-12-08T06:37:06.592Z,96.40
2022-12-08T06:38:06.609Z,96.50
2022-12-08T06:39:06.639Z,96.50
2022-12-08T06:40:06.833Z,96.30
2022-12-08T06:41:06.541Z,96.19
2022-12-08T06:42:06.518Z,96.19
2022-12-08T06:43:06.557Z,96.40
2022-12-08T06:44:06.505Z,96.61
2022-12-08T06:45:06.507Z,96.50
2022-12-08T06:46:06.629Z,96.61
2022-12-08T06:47:06.479Z,96.40
2022-12-08T06:48:06.473Z,96.19
2022-12-08T06:49:06.461Z,96.30
2022-12-08T06:50:06.908Z,96.30
2022-12-08T06:51:06.457Z,96.09
2022-12-08T06:52:06.448Z,96.09
2022-12-08T06:53:06.412Z,96.61
2022-12-08T06:54:06.413Z,96.40
2022-12-08T06:55:06.381Z,96.61
2022-12-08T06:56:06.428Z,96.61
2022-12-08T06:57:06.381Z,96.19
2022-12-08T06:58:06.381Z,96.19
2022-12-08T06:59:06.361Z,96.50
2022-12-08T07:00:06.691Z,96.30
2022-12-08T07:01:06.411Z,96.50
2022-12-08T07:02:06.421Z,96.40
2022-12-08T07:03:06.321Z,95.78
2022-12-08T07:04:06.321Z,95.67
2022-12-08T07:05:06.302Z,95.88
2022-12-08T07:06:06.300Z,95.98
2022-12-08T07:07:06.278Z,95.88
2022-12-08T07:08:06.318Z,96.19
2022-12-08T07:09:06.260Z,95.78
2022-12-08T07:10:06.710Z,95.88
2022-12-08T07:11:06.232Z,96.30
2022-12-08T07:12:06.227Z,96.09
2022-12-08T07:13:06.257Z,95.98
2022-12-08T07:14:06.214Z,95.78
2022-12-08T07:15:06.205Z,95.46
2022-12-08T07:16:06.207Z,95.36
2022-12-08T07:17:06.303Z,95.56
2022-12-08T07:18:06.167Z,95.46
2022-12-08T07:19:06.186Z,95.67
2022-12-08T07:20:06.583Z,95.67
2022-12-08T07:21:06.123Z,95.67
2022-12-08T07:22:09.559Z,95.25
2022-12-08T07:23:06.105Z,95.15
2022-12-08T07:24:06.130Z,95.36
2022-12-08T07:25:06.111Z,95.25
2022-12-08T07:26:06.101Z,95.15
2022-12-08T07:27:06.073Z,94.84
2022-12-08T07:28:06.068Z,94.84
2022-12-08T07:29:06.087Z,95.15
2022-12-08T07:30:06.325Z,95.15
2022-12-08T07:31:06.068Z,95.15
2022-12-08T07:32:06.033Z,95.21
2022-12-08T07:33:06.032Z,95.36
2022-12-08T07:34:06.015Z,95.21
2022-12-08T07:35:06.005Z,95.31
2022-12-08T07:36:05.999Z,95.52
2022-12-08T07:37:05.960Z,95.42
2022-12-08T07:38:05.972Z,95.10
2022-12-08T07:39:05.964Z,95.10
2022-12-08T07:40:06.480Z,94.90
2022-12-08T07:41:05.931Z,95.00
2022-12-08T07:42:05.932Z,95.10
2022-12-08T07:43:06.083Z,95.21
2022-12-08T07:44:05.929Z,95.52
2022-12-08T07:45:05.890Z,95.42
2022-12-08T07:46:05.978Z,95.10
2022-12-08T07:47:05.864Z,94.90
2022-12-08T07:48:05.892Z,95.31
2022-12-08T07:49:05.861Z,95.00
2022-12-08T07:50:06.097Z,94.90
2022-12-08T07:51:05.846Z,94.64
2022-12-08T07:52:05.893Z,94.64
2022-12-08T07:53:05.834Z,94.43
2022-12-08T07:54:05.853Z,94.43
2022-12-08T07:55:05.820Z,94.43
2022-12-08T07:56:05.791Z,94.75
2022-12-08T07:57:05.765Z,94.75
2022-12-08T07:58:05.787Z,95.06
2022-12-08T07:59:05.752Z,95.37
2022-12-08T08:00:06.203Z,95.79
2022-12-08T08:01:05.915Z,95.06
2022-12-08T08:02:23.591Z,94.96
2022-12-08T08:03:05.778Z,94.64
2022-12-08T08:04:05.773Z,94.54
2022-12-08T08:05:05.786Z,93.81
2022-12-08T08:06:05.700Z,94.12
2022-12-08T08:07:05.660Z,94.12
2022-12-08T08:08:05.759Z,94.12
2022-12-08T08:09:05.683Z,94.08
2022-12-08T08:10:05.980Z,94.60
2022-12-08T08:11:15.756Z,94.08
2022-12-08T08:12:29.639Z,94.08
2022-12-08T08:13:05.601Z,93.46
2022-12-08T08:14:05.628Z,93.35
2022-12-08T08:15:05.589Z,93.35
2022-12-08T08:16:05.758Z,93.98
2022-12-08T08:17:05.661Z,93.98
2022-12-08T08:18:05.573Z,94.14
2022-12-08T08:19:05.535Z,93.31
2022-12-08T08:20:05.984Z,92.89
2022-12-08T08:21:22.136Z,92.37
2022-12-08T08:22:05.551Z,92.68
2022-12-08T08:23:05.509Z,92.41
2022-12-08T08:24:05.511Z,92.52
2022-12-08T08:25:05.475Z,92.93
2022-12-08T08:26:05.521Z,92.52
2022-12-08T08:27:05.486Z,92.52
2022-12-08T08:28:05.465Z,92.62
2022-12-08T08:29:05.459Z,92.72
2022-12-08T08:30:06.036Z,92.41
2022-12-08T08:31:05.497Z,92.93
2022-12-08T08:32:05.445Z,92.62
2022-12-08T08:33:05.438Z,92.31
2022-12-08T08:34:05.403Z,92.10
2022-12-08T08:35:05.414Z,92.21
2022-12-08T08:36:05.398Z,91.89
2022-12-08T08:37:05.428Z,92.41
2022-12-08T08:38:05.380Z,92.72
2022-12-08T08:39:05.340Z,92.10
2022-12-08T08:40:05.726Z,92.00
2022-12-08T08:41:05.327Z,92.10
2022-12-08T08:42:05.319Z,92.31
2022-12-08T08:43:05.281Z,92.62
2022-12-08T08:44:05.305Z,92.72
2022-12-08T08:45:05.267Z,92.68
2022-12-08T08:46:05.363Z,92.37
2022-12-08T08:47:05.285Z,92.16
2022-12-08T08:48:05.254Z,92.27
2022-12-08T08:49:05.231Z,92.37
2022-12-08T08:50:05.550Z,92.47
2022-12-08T08:51:05.224Z,92.06
2022-12-08T08:52:05.199Z,91.85
2022-12-08T08:53:05.212Z,92.06
2022-12-08T08:54:05.191Z,91.75
2022-12-08T08:55:05.179Z,92.12
2022-12-08T08:56:05.179Z,92.02
2022-12-08T08:57:05.140Z,91.91
2022-12-08T08:58:05.226Z,91.71
2022-12-08T08:59:05.114Z,90.87
2022-12-08T09:00:05.486Z,90.66
2022-12-08T09:01:05.103Z,91.12
2022-12-08T09:02:05.174Z,91.22
2022-12-08T09:03:05.075Z,91.85
2022-12-08T09:04:05.168Z,91.39
2022-12-08T09:05:05.133Z,91.08
2022-12-08T09:06:05.147Z,90.87
2022-12-08T09:07:05.045Z,91.28
2022-12-08T09:08:05.119Z,91.28
2022-12-08T09:09:05.019Z,91.50
2022-12-08T09:10:05.422Z,91.18
2022-12-08T09:11:04.999Z,91.18
2022-12-08T09:12:05.048Z,90.87
2022-12-08T09:13:04.996Z,90.72
2022-12-08T09:14:04.987Z,91.25
2022-12-08T09:15:04.967Z,91.35
2022-12-08T09:16:05.037Z,90.62
2022-12-08T09:17:04.921Z,90.31
2022-12-08T09:18:04.980Z,90.83
2022-12-08T09:19:04.900Z,90.37
2022-12-08T09:20:05.257Z,90.37
2022-12-08T09:21:04.879Z,90.16
2022-12-08T09:22:04.918Z,90.06
2022-12-08T09:23:04.869Z,88.85
2022-12-08T09:24:04.866Z,89.27
2022-12-08T09:25:04.835Z,89.79
2022-12-08T09:26:04.867Z,89.27
2022-12-08T09:27:04.841Z,89.06
2022-12-08T09:28:04.831Z,90.00
2022-12-08T09:29:04.800Z,90.20
2022-12-08T09:30:05.204Z,90.20
2022-12-08T09:31:04.915Z,89.69
2022-12-08T09:32:04.838Z,90.20
2022-12-08T09:33:04.840Z,90.41
2022-12-08T09:34:04.754Z,90.58
2022-12-08T09:35:04.742Z,90.47
2022-12-08T09:36:04.776Z,89.95
2022-12-08T09:37:04.739Z,89.54
2022-12-08T09:38:04.742Z,89.18
2022-12-08T09:39:04.740Z,88.87
2022-12-08T09:40:05.139Z,89.08
2022-12-08T09:41:04.671Z,88.29
2022-12-08T09:42:04.673Z,88.40
2022-12-08T09:43:04.641Z,88.50
2022-12-08T09:44:04.650Z,88.50
2022-12-08T09:45:04.673Z,88.29
2022-12-08T09:46:04.713Z,88.71
2022-12-08T09:47:04.720Z,88.12
2022-12-08T09:48:04.616Z,89.17
2022-12-08T09:49:04.610Z,89.85
2022-12-08T09:50:05.202Z,90.16
2022-12-08T09:51:04.558Z,90.12
2022-12-08T09:52:04.597Z,89.39
2022-12-08T09:53:04.559Z,88.98
2022-12-08T09:54:04.572Z,87.52
2022-12-08T09:55:04.570Z,86.69
2022-12-08T09:56:04.647Z,87.98
2022-12-08T09:57:04.500Z,88.67
2022-12-08T09:58:04.545Z,89.50
2022-12-08T09:59:04.497Z,88.67
2022-12-08T10:00:04.907Z,88.15
2022-12-08T10:01:04.480Z,88.04
2022-12-08T10:02:04.532Z,89.18
2022-12-08T10:03:04.452Z,88.67
2022-12-08T10:04:04.440Z,88.35
2022-12-08T10:05:04.485Z,88.56
2022-12-08T10:06:04.461Z,88.52
2022-12-08T10:07:04.426Z,88.73
2022-12-08T10:08:04.511Z,87.59
2022-12-08T10:09:04.375Z,87.27
2022-12-08T10:10:04.693Z,87.42
2022-12-08T10:11:04.350Z,88.04
2022-12-08T10:12:04.382Z,87.42
2022-12-08T10:13:04.340Z,88.15
2022-12-08T10:14:04.354Z,88.46
2022-12-08T10:15:04.339Z,88.77
2022-12-08T10:16:04.403Z,88.56
2022-12-08T10:17:04.341Z,88.21
2022-12-08T10:18:04.335Z,87.73
2022-12-08T10:19:04.277Z,87.84
2022-12-08T10:20:04.507Z,88.35
2022-12-08T10:21:04.283Z,88.35
2022-12-08T10:22:04.267Z,87.94
2022-12-08T10:23:04.239Z,88.35
2022-12-08T10:24:04.257Z,88.77
2022-12-08T10:25:04.208Z,88.77
2022-12-08T10:26:04.248Z,88.56
2022-12-08T10:27:04.213Z,88.35
2022-12-08T10:28:04.248Z,88.67
2022-12-08T10:29:04.178Z,88.25
2022-12-08T10:30:04.404Z,88.77
2022-12-08T10:31:04.204Z,89.29
2022-12-08T10:32:04.232Z,88.56
2022-12-08T10:33:04.130Z,87.84
2022-12-08T10:34:04.173Z,87.42
2022-12-08T10:35:04.104Z,87.52
2022-12-08T10:36:04.143Z,87.77
2022-12-08T10:37:04.083Z,88.09
2022-12-08T10:38:04.120Z,88.50
2022-12-08T10:39:04.064Z,89.12
2022-12-08T10:40:04.521Z,89.08
2022-12-08T10:41:04.141Z,88.04
2022-12-08T10:42:04.095Z,88.56
2022-12-08T10:43:04.022Z,88.35
2022-12-08T10:44:04.057Z,88.21
2022-12-08T10:45:04.036Z,87.69
2022-12-08T10:46:04.019Z,86.96
2022-12-08T10:47:04.082Z,86.44
2022-12-08T10:48:04.004Z,87.17
2022-12-08T10:49:03.988Z,87.79
2022-12-08T10:50:04.294Z,86.55
2022-12-08T10:51:03.972Z,86.65
2022-12-08T10:52:03.974Z,86.34
2022-12-08T10:53:03.947Z,86.24
2022-12-08T10:54:03.965Z,86.44
2022-12-08T10:55:03.894Z,86.93
2022-12-08T10:56:03.946Z,86.41
2022-12-08T10:57:03.931Z,85.99
2022-12-08T10:58:03.883Z,85.74
2022-12-08T10:59:03.853Z,85.33
2022-12-08T11:00:06.142Z,85.33
2022-12-08T11:01:03.958Z,85.60
2022-12-08T11:02:04.150Z,85.39
2022-12-08T11:03:03.976Z,84.05
2022-12-08T11:04:03.825Z,83.94
2022-12-08T11:05:03.823Z,84.88
2022-12-08T11:06:10.501Z,85.19
2022-12-08T11:07:03.829Z,85.19
2022-12-08T11:08:03.851Z,84.52
2022-12-08T11:09:03.833Z,84.52
2022-12-08T11:10:04.093Z,84.42
2022-12-08T11:11:03.762Z,83.69
2022-12-08T11:12:03.726Z,82.76
2022-12-08T11:13:03.770Z,82.55
2022-12-08T11:14:03.722Z,82.90
2022-12-08T11:15:03.720Z,83.84
2022-12-08T11:16:03.744Z,83.42
2022-12-08T11:17:03.733Z,83.73
2022-12-08T11:18:03.685Z,83.73
2022-12-08T11:19:03.679Z,84.36
2022-12-08T11:20:04.179Z,83.77
2022-12-08T11:21:03.640Z,83.87
2022-12-08T11:22:03.630Z,84.50
2022-12-08T11:23:03.675Z,84.81
2022-12-08T11:24:03.598Z,85.22
2022-12-08T11:25:03.619Z,85.33
2022-12-08T11:26:03.581Z,85.33
2022-12-08T11:27:03.596Z,84.53
2022-12-08T11:28:03.572Z,85.36
2022-12-08T11:29:03.584Z,85.99
2022-12-08T11:30:05.955Z,86.19
2022-12-08T11:31:03.565Z,85.57
2022-12-08T11:32:03.620Z,85.26
2022-12-08T11:33:03.520Z,85.99
2022-12-08T11:34:03.503Z,85.78
2022-12-08T11:35:03.501Z,85.99
2022-12-08T11:36:03.472Z,86.09
2022-12-08T11:37:03.518Z,86.47
2022-12-08T11:38:20.594Z,85.22
2022-12-08T11:39:03.510Z,83.25
2022-12-08T11:40:03.752Z,83.56
2022-12-08T11:41:03.469Z,83.36
2022-12-08T11:42:03.406Z,83.04
2022-12-08T11:43:03.450Z,82.21
2022-12-08T11:44:03.388Z,82.11
2022-12-08T11:45:03.785Z,82.21
2022-12-08T11:46:03.464Z,82.42
2022-12-08T11:47:03.384Z,81.90
2022-12-08T11:48:03.346Z,82.63
2022-12-08T11:49:06.774Z,82.73
2022-12-08T11:50:03.885Z,82.07
2022-12-08T11:51:03.373Z,82.70
2022-12-08T11:52:03.359Z,82.90
2022-12-08T11:53:03.324Z,82.07
2022-12-08T11:54:03.312Z,82.18
2022-12-08T11:55:03.288Z,81.45
2022-12-08T11:56:03.259Z,81.14
2022-12-08T11:57:03.288Z,81.80
2022-12-08T11:58:03.346Z,82.42
2022-12-08T11:59:03.277Z,82.42
2022-12-08T12:00:03.675Z,82.94
2022-12-08T12:01:03.228Z,83.56
2022-12-08T12:02:03.316Z,83.04
2022-12-08T12:03:03.241Z,82.11
2022-12-08T12:04:03.189Z,82.01
2022-12-08T12:05:03.224Z,82.73
2022-12-08T12:06:18.313Z,83.04
2022-12-08T12:07:03.187Z,83.46
2022-12-08T12:08:03.217Z,83.98
2022-12-08T12:09:03.155Z,83.04
2022-12-08T12:10:03.549Z,83.25
2022-12-08T12:11:03.140Z,83.36
2022-12-08T12:12:03.097Z,83.56
2022-12-08T12:13:03.159Z,83.36
2022-12-08T12:14:03.087Z,83.25
2022-12-08T12:15:03.118Z,83.36
2022-12-08T12:16:03.051Z,82.84
2022-12-08T12:17:03.137Z,82.94
2022-12-08T12:18:03.057Z,83.56
2022-12-08T12:19:03.104Z,84.08
2022-12-08T12:20:03.508Z,84.29
2022-12-08T12:21:03.028Z,83.36
2022-12-08T12:22:03.050Z,82.94
2022-12-08T12:23:03.035Z,83.04
2022-12-08T12:24:03.013Z,83.04
2022-12-08T12:25:03.006Z,83.04
2022-12-08T12:26:02.987Z,83.11
2022-12-08T12:27:02.955Z,82.39
2022-12-08T12:28:02.961Z,82.49
2022-12-08T12:29:02.975Z,82.80
2022-12-08T12:30:02.930Z,82.28
2022-12-08T12:31:02.965Z,83.63
2022-12-08T12:32:02.896Z,83.42
2022-12-08T12:33:02.899Z,82.39
2022-12-08T12:34:02.881Z,82.55
2022-12-08T12:35:02.916Z,82.45
2022-12-08T12:36:02.888Z,82.24
2022-12-08T12:37:02.851Z,81.62
2022-12-08T12:38:02.845Z,81.72
2022-12-08T12:39:02.842Z,81.76
2022-12-08T12:40:02.979Z,82.70
2022-12-08T12:41:02.879Z,82.80
2022-12-08T12:42:02.822Z,82.70
2022-12-08T12:43:02.861Z,81.76
2022-12-08T12:44:02.760Z,82.18
2022-12-08T12:45:02.781Z,82.39
2022-12-08T12:46:02.810Z,82.90
2022-12-08T12:47:02.766Z,82.84
2022-12-08T12:48:02.722Z,83.36
2022-12-08T12:49:02.744Z,83.04
2022-12-08T12:50:02.991Z,82.94
2022-12-08T12:51:02.742Z,83.15
2022-12-08T12:52:02.754Z,83.15
2022-12-08T12:53:02.696Z,82.84
2022-12-08T12:54:02.684Z,83.46
2022-12-08T12:55:02.669Z,83.46
2022-12-08T12:56:02.666Z,83.98